createdAt,value
2022-07-29T02:47:41.585Z,99340.34
2022-07-29T02:50:29.119Z,99334.09
2022-07-29T02:53:10.395Z,99337.16
2022-07-29T02:55:42.451Z,99313.22
2022-07-29T02:58:15.985Z,99346.28
2022-07-29T03:00:48.395Z,99308.19
2022-07-29T03:03:18.578Z,99333.78
2022-07-29T03:13:52.818Z,99325.31
2022-07-29T03:16:31.046Z,99344.34
2022-07-29T03:19:03.662Z,99333.94
2022-07-29T03:21:31.803Z,99324.50
2022-07-29T07:39:27.037Z,99371.31
2022-07-29T09:33:42.058Z,99354.09
2022-07-29T09:36:13.795Z,99348.19
2022-07-29T10:13:01.880Z,99382.50
2022-07-29T10:15:42.877Z,99371.47
2022-07-29T10:44:42.515Z,99340.28
2022-07-29T10:56:25.914Z,99360.16
2022-07-29T11:07:06.280Z,99347.31
2022-07-29T11:10:13.169Z,99333.53
2022-07-29T11:12:53.552Z,99374.22
2022-07-29T11:15:28.580Z,99353.91
2022-07-29T11:17:59.683Z,99383.06
2022-07-29T11:20:37.902Z,99335.81
2022-07-29T11:23:33.844Z,99372.50
2022-07-29T11:26:18.736Z,99364.38
2022-07-29T11:29:15.778Z,99359.72
2022-07-29T11:31:50.460Z,99382.72
2022-07-29T11:34:28.048Z,99380.00
2022-07-29T11:37:12.585Z,99380.03
2022-07-29T11:39:56.919Z,99380.81
2022-07-29T11:42:36.220Z,99389.00
2022-07-29T11:45:42.666Z,99392.22
2022-07-29T11:48:29.643Z,99342.50
2022-07-29T11:51:13.313Z,99340.03
2022-07-29T11:53:41.333Z,99361.09
2022-07-29T11:56:16.434Z,99371.19
2022-07-29T11:58:46.010Z,99358.94
2022-07-29T12:01:19.023Z,99362.28
2022-07-29T12:03:49.729Z,99365.31
2022-07-29T12:06:20.955Z,99343.91
2022-07-29T12:08:49.868Z,99345.81
2022-07-29T12:11:23.394Z,99362.22
2022-07-29T12:13:52.585Z,99339.50
2022-07-29T12:16:25.558Z,99367.50
2022-07-29T12:19:04.427Z,99340.00
2022-07-29T12:22:05.406Z,99370.88
2022-07-29T12:24:45.422Z,99359.78
2022-07-29T12:27:13.581Z,99331.63
2022-07-29T12:29:43.895Z,99342.97
2022-07-29T12:32:19.769Z,99377.75
2022-07-29T12:34:47.764Z,99350.81
2022-07-29T12:37:16.446Z,99334.09
2022-07-29T12:39:44.138Z,99344.03
2022-07-29T12:42:18.464Z,99359.69
2022-07-29T12:44:50.275Z,99376.94
2022-07-29T12:47:20.110Z,99343.28
2022-07-29T12:50:16.555Z,99316.13
2022-07-29T12:52:44.765Z,99343.56
2022-07-29T12:55:17.377Z,99313.47
2022-07-29T12:57:53.345Z,99331.81
2022-07-29T13:00:27.124Z,99328.25
2022-07-29T13:03:00.052Z,99354.56
2022-07-29T13:06:01.128Z,99328.81
2022-07-29T13:08:30.129Z,99320.28
2022-07-29T13:10:59.633Z,99326.25
2022-07-29T13:13:27.318Z,99363.88
2022-07-29T13:16:08.935Z,99319.44
2022-07-29T13:47:06.750Z,99351.69
2022-07-29T13:49:34.089Z,99365.00
2022-07-29T13:52:01.525Z,99348.94
2022-07-29T14:09:18.715Z,99337.47
2022-07-29T14:37:20.205Z,99309.84
2022-07-29T14:39:49.388Z,99306.41
2022-07-29T14:42:18.701Z,99310.84
2022-07-29T14:44:49.093Z,99308.16
2022-07-29T14:47:25.323Z,99293.41
2022-07-29T14:49:53.537Z,99318.91
2022-07-29T14:52:27.194Z,99289.63
2022-07-29T14:54:56.171Z,99294.28
2022-07-29T14:57:23.933Z,99295.94
2022-07-29T14:59:55.288Z,99298.41
2022-07-29T15:02:45.802Z,99313.75
2022-07-29T15:05:19.123Z,99301.13
2022-07-29T15:07:50.643Z,99310.72
2022-07-29T15:10:25.769Z,99295.38
2022-07-29T15:32:36.062Z,99313.09
2022-07-29T16:02:08.351Z,99313.41
2022-07-29T16:04:42.183Z,99320.53
2022-07-29T16:07:10.327Z,99310.91
2022-07-29T16:09:53.066Z,99306.25
2022-07-29T16:12:28.054Z,99319.69
2022-07-29T16:14:55.750Z,99358.91
